Time;durP1;ratioP1;P1;durP2;ratioP2;P2;SDS_P1;SDS_P2;PMS_P1;PMS_P2;Temp;Humidity;BMP_temperature;BMP_pressure;BME280_temperature;BME280_humidity;BME280_pressure;Samples;Min_cycle;Max_cycle;Signal;HPM_P1;HPM_P2
2022/12/15 02:43:51;;;;;;;68.55;41.20;;;-5.80;99.90;;;;;;5131979;27;20487;-88
2022/12/15 02:46:27;;;;;;;59.10;35.53;;;-4.60;99.90;;;;;;5114623;28;20208;-83
2022/12/15 02:49:21;;;;;;;61.47;35.25;;;-4.50;99.90;;;;;;5113222;28;20215;-85
2022/12/15 02:55:37;;;;;;;58.53;30.77;;;-4.30;99.90;;;;;;5095068;28;20288;-88
2022/12/15 03:04:32;;;;;;;55.55;30.40;;;-4.10;99.90;;;;;;5081829;28;20202;-81
2022/12/15 03:10:00;;;;;;;53.22;29.13;;;-4.00;99.90;;;;;;5103145;28;20276;-82
2022/12/15 03:12:46;;;;;;;49.70;29.50;;;-4.00;99.90;;;;;;5107176;28;20228;-82
2022/12/15 03:15:51;;;;;;;53.33;29.77;;;-4.10;99.90;;;;;;5106954;28;20208;-82
2022/12/15 03:18:32;;;;;;;56.78;29.90;;;-4.10;99.90;;;;;;5113529;28;20565;-84
2022/12/15 03:24:34;;;;;;;52.53;29.65;;;-4.00;99.90;;;;;;5113998;28;20160;-87
2022/12/15 03:27:26;;;;;;;57.95;32.28;;;-4.10;99.90;;;;;;5114119;28;20220;-83
2022/12/15 03:30:10;;;;;;;57.23;32.93;;;-4.10;99.90;;;;;;5114045;28;20216;-83
2022/12/15 03:32:48;;;;;;;51.77;31.73;;;-4.10;99.90;;;;;;5108979;28;20501;-82
2022/12/15 03:35:39;;;;;;;56.58;34.10;;;-4.20;99.90;;;;;;5097529;28;20521;-83
2022/12/15 03:38:16;;;;;;;55.35;32.30;;;-4.20;99.90;;;;;;5083043;28;20602;-82
2022/12/15 03:40:53;;;;;;;52.40;29.98;;;-4.30;99.90;;;;;;5087933;28;20194;-82
2022/12/15 03:43:31;;;;;;;52.58;31.08;;;-4.30;99.90;;;;;;5066227;28;20202;-81
2022/12/15 03:46:04;;;;;;;51.30;30.63;;;-4.30;99.90;;;;;;5056532;28;20653;-81
2022/12/15 03:48:42;;;;;;;59.90;35.75;;;-4.20;99.90;;;;;;5063674;28;20437;-82
2022/12/15 03:51:37;;;;;;;53.35;30.88;;;-4.20;99.90;;;;;;5072697;28;20198;-85
2022/12/15 03:54:24;;;;;;;48.20;29.30;;;-4.20;99.90;;;;;;5080724;28;20198;-87
2022/12/15 03:57:17;;;;;;;54.55;29.20;;;-4.20;99.90;;;;;;5080681;28;20198;-88
2022/12/15 03:59:51;;;;;;;47.93;29.10;;;-4.20;99.90;;;;;;5080377;28;20198;-85
2022/12/15 04:02:23;;;;;;;55.92;29.75;;;-4.20;99.90;;;;;;5077126;28;20447;-82
2022/12/15 04:08:08;;;;;;;52.47;29.40;;;-4.30;99.90;;;;;;5074341;28;20252;-84
2022/12/15 04:10:44;;;;;;;46.45;28.83;;;-4.40;99.90;;;;;;5089206;28;20216;-82
2022/12/15 04:13:17;;;;;;;47.33;27.48;;;-4.30;99.90;;;;;;5084003;28;20281;-82
2022/12/15 04:15:48;;;;;;;51.60;28.85;;;-4.30;99.90;;;;;;5070125;28;20202;-82
2022/12/15 04:18:43;;;;;;;58.67;31.10;;;-4.20;99.90;;;;;;5094265;28;20213;-85
2022/12/15 05:34:12;;;;;;;48.37;28.90;;;-4.30;99.90;;;;;;5092500;28;20427;-82
2022/12/15 05:39:37;;;;;;;43.53;26.40;;;-4.30;99.90;;;;;;5091079;28;20453;-82
2022/12/15 05:43:08;;;;;;;44.63;26.23;;;-4.20;99.90;;;;;;5090909;28;20206;-81
2022/12/15 05:45:40;;;;;;;43.20;25.33;;;-4.10;99.90;;;;;;5091169;28;20202;-82
2022/12/15 05:48:54;;;;;;;43.80;25.15;;;-4.10;99.90;;;;;;5089471;28;20439;-83
2022/12/15 05:51:22;;;;;;;45.20;26.88;;;-4.10;99.90;;;;;;5090170;28;20208;-84
2022/12/15 05:53:54;;;;;;;46.27;26.80;;;-4.10;99.90;;;;;;5091642;28;20252;-86
2022/12/15 05:56:43;;;;;;;45.00;26.57;;;-4.10;99.90;;;;;;5091403;28;20451;-85
2022/12/15 05:59:23;;;;;;;52.03;27.50;;;-4.10;99.90;;;;;;5092281;28;20465;-84
2022/12/15 06:01:56;;;;;;;45.70;26.80;;;-4.10;99.90;;;;;;5076942;28;20599;-84
2022/12/15 06:11:21;;;;;;;44.08;25.02;;;-4.30;99.90;;;;;;5076145;28;20202;-90
2022/12/15 06:25:18;;;;;;;42.95;24.83;;;-4.20;99.90;;;;;;5074293;28;20194;-89
2022/12/15 06:47:59;;;;;;;43.60;24.03;;;-4.00;99.90;;;;;;5023152;28;20417;-89
2022/12/15 06:57:31;;;;;;;52.88;30.73;;;-4.00;99.90;;;;;;5036008;28;20431;-91
2022/12/15 07:03:39;;;;;;;40.92;23.90;;;-4.10;99.90;;;;;;5100901;23;20531;-84
2022/12/15 07:06:11;;;;;;;48.80;24.83;;;-4.00;99.90;;;;;;5089431;28;20210;-84
2022/12/15 07:08:39;;;;;;;39.60;22.77;;;-3.90;99.90;;;;;;5090824;28;20225;-85
2022/12/15 07:11:11;;;;;;;40.37;24.07;;;-3.90;99.90;;;;;;5104148;28;20198;-85
2022/12/15 07:13:43;;;;;;;37.70;23.97;;;-3.80;99.90;;;;;;5096086;28;20998;-85
2022/12/15 07:16:20;;;;;;;42.53;23.40;;;-3.90;99.90;;;;;;5069927;28;20459;-85
2022/12/15 07:18:51;;;;;;;44.23;24.33;;;-4.00;99.90;;;;;;5071601;28;20474;-88
2022/12/15 07:21:20;;;;;;;40.72;24.75;;;-4.00;99.90;;;;;;5079882;28;20428;-89
2022/12/15 07:23:58;;;;;;;44.03;24.27;;;-4.10;99.90;;;;;;5105157;28;20208;-88
2022/12/15 07:26:49;;;;;;;39.83;23.17;;;-4.10;99.90;;;;;;5113025;28;20437;-90
2022/12/15 07:29:37;;;;;;;43.60;25.67;;;-4.10;99.90;;;;;;5098758;28;20504;-87
2022/12/15 07:32:04;;;;;;;44.40;24.70;;;-4.10;99.90;;;;;;5093974;28;20474;-85
2022/12/15 07:34:34;;;;;;;39.20;23.80;;;-4.30;99.90;;;;;;5095904;28;20228;-82
2022/12/15 07:37:08;;;;;;;40.10;24.47;;;-4.10;99.90;;;;;;5081317;28;20222;-84
2022/12/15 07:39:46;;;;;;;41.95;25.63;;;-4.10;99.90;;;;;;5084484;28;20538;-83
2022/12/15 07:42:18;;;;;;;44.88;23.92;;;-4.30;99.90;;;;;;5083563;28;20209;-85
2022/12/15 07:45:15;;;;;;;40.70;22.87;;;-4.20;99.90;;;;;;5086528;28;20265;-86
2022/12/15 07:47:50;;;;;;;42.13;24.03;;;-4.10;99.90;;;;;;5086592;28;20454;-85
2022/12/15 07:50:19;;;;;;;38.92;23.83;;;-4.10;99.90;;;;;;5090338;28;20456;-84
2022/12/15 07:52:47;;;;;;;42.70;24.97;;;-4.10;99.90;;;;;;5091618;28;20233;-85
2022/12/15 07:55:16;;;;;;;44.55;24.13;;;-4.20;99.90;;;;;;5095816;28;20469;-86
2022/12/15 07:57:59;;;;;;;43.83;25.65;;;-4.10;99.90;;;;;;5104284;28;20218;-86
2022/12/15 08:00:30;;;;;;;41.42;23.85;;;-4.10;99.90;;;;;;5087851;28;20571;-84
2022/12/15 08:02:57;;;;;;;39.50;24.00;;;-4.10;99.90;;;;;;5092877;28;20243;-86
2022/12/15 08:05:46;;;;;;;39.17;24.20;;;-4.10;99.90;;;;;;5096481;28;20464;-88
2022/12/15 08:08:14;;;;;;;42.50;25.13;;;-4.30;99.90;;;;;;5096976;28;20447;-88
2022/12/15 08:13:37;;;;;;;41.40;25.07;;;-4.20;99.90;;;;;;5098908;28;20474;-89
2022/12/15 08:16:17;;;;;;;45.97;26.47;;;-4.10;99.90;;;;;;5098952;28;20466;-87
2022/12/15 08:18:49;;;;;;;45.90;25.93;;;-4.00;99.90;;;;;;5096726;28;20439;-87
2022/12/15 08:21:25;;;;;;;52.03;26.80;;;-3.90;99.90;;;;;;5076107;28;20423;-86
2022/12/15 08:24:00;;;;;;;41.70;25.15;;;-4.10;99.90;;;;;;5084370;28;20193;-87
2022/12/15 08:29:19;;;;;;;47.83;26.57;;;-3.90;99.90;;;;;;5077210;28;20926;-85
2022/12/15 08:31:48;;;;;;;47.45;26.90;;;-3.90;99.90;;;;;;5094328;28;20442;-87
2022/12/15 08:34:16;;;;;;;44.57;25.43;;;-3.80;99.90;;;;;;5090784;28;20225;-85
2022/12/15 08:39:28;;;;;;;44.28;24.45;;;-3.60;99.90;;;;;;5095248;28;20442;-85
2022/12/15 08:42:36;;;;;;;41.28;25.40;;;-3.60;99.90;;;;;;5093616;28;20209;-88
2022/12/15 08:45:20;;;;;;;41.90;25.43;;;-3.70;99.90;;;;;;5094938;28;20206;-87
2022/12/15 08:47:57;;;;;;;46.73;26.63;;;-3.40;99.90;;;;;;5095217;28;20422;-86
2022/12/15 08:50:38;;;;;;;51.00;28.67;;;-3.50;99.90;;;;;;5096235;28;20451;-88
2022/12/15 08:53:25;;;;;;;39.93;25.83;;;-3.40;99.90;;;;;;5098256;28;20225;-87
2022/12/15 08:56:06;;;;;;;48.63;26.80;;;-3.50;99.90;;;;;;5099111;28;20457;-86
2022/12/15 08:58:43;;;;;;;49.33;25.73;;;-3.80;99.90;;;;;;5098331;28;20450;-87
2022/12/15 09:01:16;;;;;;;51.97;27.17;;;-3.60;99.90;;;;;;5083367;28;20446;-87
2022/12/15 09:04:00;;;;;;;47.43;25.63;;;-3.40;99.90;;;;;;5098045;28;20459;-88
2022/12/15 09:06:33;;;;;;;50.07;25.57;;;-3.20;99.90;;;;;;5094815;28;20429;-84
2022/12/15 09:09:02;;;;;;;51.27;26.27;;;-3.10;99.90;;;;;;5111117;28;20442;-85
2022/12/15 09:11:39;;;;;;;41.80;25.50;;;-3.00;99.90;;;;;;5115576;28;20445;-79
2022/12/15 09:14:06;;;;;;;45.27;26.60;;;-3.00;99.90;;;;;;5093758;28;20650;-78
2022/12/15 09:16:37;;;;;;;40.83;25.60;;;-2.90;99.90;;;;;;5094886;28;20442;-82
2022/12/15 09:19:07;;;;;;;46.13;26.17;;;-2.90;99.90;;;;;;5085256;28;20439;-77
2022/12/15 09:21:41;;;;;;;46.57;26.03;;;-2.80;99.90;;;;;;5094382;28;20451;-79
2022/12/15 09:24:13;;;;;;;47.03;25.40;;;-2.80;99.90;;;;;;5078094;28;20440;-82
2022/12/15 09:26:41;;;;;;;43.50;25.30;;;-2.70;99.90;;;;;;5090841;28;20458;-79
2022/12/15 09:29:22;;;;;;;46.27;26.67;;;-2.60;99.90;;;;;;5096969;28;20430;-77
2022/12/15 09:31:53;;;;;;;44.13;26.53;;;-2.60;99.90;;;;;;5097383;28;20446;-79
2022/12/15 09:34:26;;;;;;;49.30;26.70;;;-2.60;99.90;;;;;;5097791;28;20478;-81
2022/12/15 09:36:58;;;;;;;40.90;25.47;;;-2.50;99.90;;;;;;5079336;28;20482;-77
2022/12/15 09:39:28;;;;;;;42.47;25.73;;;-2.40;99.90;;;;;;5066203;28;20449;-77
2022/12/15 09:42:00;;;;;;;47.73;27.57;;;-2.30;99.90;;;;;;5078001;28;20474;-78
2022/12/15 09:44:30;;;;;;;44.10;26.57;;;-2.20;99.90;;;;;;5077212;28;20442;-77
2022/12/15 09:47:24;;;;;;;44.07;26.23;;;-2.10;99.90;;;;;;5078045;28;20850;-77
2022/12/15 09:49:58;;;;;;;43.50;25.23;;;-2.10;99.90;;;;;;5078454;28;20508;-77
2022/12/15 09:55:21;;;;;;;44.00;26.10;;;-2.00;99.90;;;;;;5102766;28;20513;-79
2022/12/15 09:58:15;;;;;;;49.77;27.30;;;-2.00;99.90;;;;;;5098095;28;20444;-81
2022/12/15 10:00:54;;;;;;;49.60;28.33;;;-1.80;99.90;;;;;;5098049;28;20458;-82
2022/12/15 10:04:02;;;;;;;42.03;25.33;;;-1.70;99.90;;;;;;5097992;28;20498;-83
2022/12/15 10:07:05;;;;;;;48.67;25.67;;;-1.60;99.90;;;;;;5096902;28;20599;-85
2022/12/15 10:12:48;;;;;;;44.57;26.37;;;-1.60;99.90;;;;;;5091812;28;20428;-85
2022/12/15 10:15:27;;;;;;;40.20;25.13;;;-1.50;99.90;;;;;;5096505;28;20436;-84
2022/12/15 10:18:02;;;;;;;51.47;30.70;;;-1.40;99.90;;;;;;5117130;28;20405;-86
2022/12/15 10:20:38;;;;;;;47.67;27.77;;;-1.20;99.90;;;;;;5104816;28;20200;-83
2022/12/15 10:26:31;;;;;;;41.10;25.67;;;-1.10;99.90;;;;;;5080026;28;20460;-86
2022/12/15 10:33:03;;;;;;;40.17;24.20;;;-0.90;99.90;;;;;;5097078;28;20427;-86
2022/12/15 10:39:28;;;;;;;42.50;25.13;;;-0.90;99.90;;;;;;5098669;28;20429;-87
2022/12/15 10:45:38;;;;;;;39.23;25.33;;;-0.60;99.90;;;;;;5090269;28;20462;-86
2022/12/15 10:48:27;;;;;;;49.35;34.50;;;-0.80;99.90;;;;;;5096645;28;20432;-85
2022/12/15 10:51:24;;;;;;;40.80;27.53;;;-0.60;99.90;;;;;;5097244;28;20186;-85
2022/12/15 10:54:26;;;;;;;41.27;25.37;;;-0.40;99.90;;;;;;5101002;28;20529;-86
2022/12/15 10:57:16;;;;;;;39.13;26.20;;;-0.20;99.90;;;;;;5102300;28;20434;-85
2022/12/15 11:03:31;;;;;;;42.23;25.57;;;0.00;99.90;;;;;;5098859;28;20431;-82
2022/12/15 11:09:31;;;;;;;37.00;23.43;;;0.10;99.90;;;;;;5101663;28;20414;-83
2022/12/15 11:15:47;;;;;;;40.30;24.33;;;0.40;99.90;;;;;;5098352;28;20456;-86
2022/12/15 11:18:52;;;;;;;37.93;24.07;;;0.50;99.90;;;;;;5094964;28;20454;-83
2022/12/15 11:24:42;;;;;;;38.17;23.97;;;0.60;99.90;;;;;;5101693;28;20437;-82
2022/12/15 11:27:35;;;;;;;42.37;25.73;;;0.60;99.90;;;;;;5100551;28;20553;-83
2022/12/15 11:33:05;;;;;;;40.33;27.33;;;1.00;99.90;;;;;;5096228;28;20478;-83
2022/12/15 11:38:54;;;;;;;35.17;24.07;;;1.10;99.90;;;;;;5084915;28;20450;-84
2022/12/15 11:41:58;;;;;;;41.10;25.07;;;1.20;99.90;;;;;;5080984;28;20526;-84
2022/12/15 11:44:53;;;;;;;37.33;24.17;;;1.20;99.90;;;;;;5080988;28;20423;-84
2022/12/15 11:53:38;;;;;;;48.47;25.83;;;1.50;99.90;;;;;;5099472;28;20470;-84
2022/12/15 11:56:38;;;;;;;38.37;26.00;;;1.50;99.90;;;;;;5101026;28;20450;-83
2022/12/15 11:59:49;;;;;;;42.40;26.50;;;1.40;99.90;;;;;;5092369;28;20459;-84
2022/12/15 12:02:55;;;;;;;40.93;26.40;;;1.40;99.90;;;;;;5095502;28;20518;-83
2022/12/15 12:05:43;;;;;;;39.70;25.03;;;1.50;99.90;;;;;;5088189;28;20446;-83
2022/12/15 12:08:46;;;;;;;43.00;25.00;;;1.70;99.90;;;;;;5080226;28;20443;-83
2022/12/15 12:11:17;;;;;;;38.60;25.23;;;1.70;99.90;;;;;;5080624;28;20424;-82
2022/12/15 12:20:25;;;;;;;38.23;21.57;;;1.90;99.90;;;;;;5100522;28;20473;-82
2022/12/15 12:23:17;;;;;;;40.67;23.40;;;2.00;99.90;;;;;;5098799;28;20486;-81
2022/12/15 12:25:58;;;;;;;38.80;22.70;;;2.10;99.90;;;;;;5099519;28;20431;-82
2022/12/15 12:38:52;;;;;;;31.33;20.27;;;2.00;99.90;;;;;;5086603;28;20443;-86
2022/12/15 12:44:48;;;;;;;33.60;19.00;;;2.30;99.90;;;;;;5086307;23;20500;-84
2022/12/15 12:47:30;;;;;;;32.03;19.57;;;2.20;99.90;;;;;;5079233;28;20481;-84
2022/12/15 12:50:05;;;;;;;32.00;20.73;;;2.20;99.90;;;;;;5074789;28;20945;-84
2022/12/15 13:39:14;;;;;;;30.63;19.73;;;2.80;99.90;;;;;;5059575;28;20452;-87
2022/12/15 13:42:30;;;;;;;34.60;20.40;;;2.70;99.90;;;;;;5056183;28;20456;-84
2022/12/15 13:45:35;;;;;;;30.17;19.23;;;2.70;99.90;;;;;;5053899;28;20981;-82
2022/12/15 13:48:31;;;;;;;29.80;21.55;;;2.90;99.90;;;;;;5055889;28;20411;-86
2022/12/15 13:51:27;;;;;;;30.87;18.47;;;3.00;99.90;;;;;;5056338;28;20242;-86
2022/12/15 13:54:06;;;;;;;30.93;19.37;;;3.10;99.90;;;;;;5056072;28;20483;-87
2022/12/15 13:57:14;;;;;;;30.87;19.70;;;3.10;99.90;;;;;;5056691;28;20444;-86
2022/12/15 13:59:47;;;;;;;31.10;20.30;;;3.20;99.90;;;;;;5046823;28;20452;-86
2022/12/15 14:02:27;;;;;;;37.20;21.03;;;3.30;99.90;;;;;;5052060;28;20471;-86
2022/12/15 14:05:21;;;;;;;34.03;21.83;;;3.40;99.90;;;;;;5049421;28;20464;-86
2022/12/15 14:07:59;;;;;;;30.93;21.47;;;3.40;99.90;;;;;;5050358;28;20472;-86
2022/12/15 14:10:50;;;;;;;32.30;20.53;;;3.40;99.90;;;;;;5049917;28;20456;-86
2022/12/15 14:13:22;;;;;;;41.17;24.38;;;3.40;99.90;;;;;;5051629;28;20509;-86
2022/12/15 14:15:56;;;;;;;35.47;22.43;;;3.30;99.90;;;;;;5050946;28;20194;-86
2022/12/15 14:18:28;;;;;;;36.27;21.13;;;3.20;99.90;;;;;;5051505;28;20785;-86
2022/12/15 14:20:58;;;;;;;30.47;20.27;;;3.20;99.90;;;;;;5051208;28;20433;-86
2022/12/15 14:23:29;;;;;;;34.97;19.70;;;3.30;99.90;;;;;;5049834;28;20449;-86
2022/12/15 14:26:04;;;;;;;28.93;20.00;;;3.10;99.90;;;;;;5049985;28;20471;-87
2022/12/15 14:28:36;;;;;;;28.47;19.93;;;3.10;99.90;;;;;;5050163;28;20428;-87
2022/12/15 14:31:39;;;;;;;32.27;20.27;;;3.10;99.90;;;;;;5050853;28;20460;-86
2022/12/15 14:34:15;;;;;;;26.40;19.70;;;3.30;99.90;;;;;;5052101;28;20491;-86
2022/12/15 14:36:45;;;;;;;26.87;19.17;;;3.20;99.90;;;;;;5054005;28;20444;-85
2022/12/15 14:39:35;;;;;;;31.70;20.53;;;3.30;99.90;;;;;;5054846;28;20435;-86
2022/12/15 14:42:06;;;;;;;31.47;20.43;;;3.20;99.90;;;;;;5055501;28;20425;-86
2022/12/15 14:44:37;;;;;;;29.20;20.33;;;3.20;99.90;;;;;;5055578;28;20455;-86
2022/12/15 14:47:21;;;;;;;32.20;21.27;;;3.20;99.90;;;;;;5055519;28;20444;-86
2022/12/15 14:52:46;;;;;;;27.40;19.30;;;3.30;99.90;;;;;;5056420;28;20432;-86
2022/12/15 14:55:30;;;;;;;28.30;20.63;;;3.20;99.90;;;;;;5056040;28;20483;-86
2022/12/15 14:58:22;;;;;;;29.33;20.33;;;3.10;99.90;;;;;;5056349;28;20480;-85
2022/12/15 15:01:06;;;;;;;26.47;18.80;;;3.10;99.90;;;;;;5055597;28;20431;-86
2022/12/15 15:03:52;;;;;;;27.87;19.17;;;3.10;99.90;;;;;;5055558;28;20419;-86
2022/12/15 15:06:44;;;;;;;34.53;26.77;;;3.10;99.90;;;;;;5054325;28;20423;-86
2022/12/15 15:09:28;;;;;;;36.73;22.07;;;2.90;99.90;;;;;;5054357;28;20209;-86
2022/12/15 15:12:18;;;;;;;31.73;22.70;;;2.90;99.90;;;;;;5055147;28;20456;-86
2022/12/15 15:14:56;;;;;;;33.97;20.70;;;2.80;99.90;;;;;;5054673;28;20555;-86
2022/12/15 15:17:32;;;;;;;36.90;22.80;;;2.60;99.90;;;;;;5054917;28;20452;-86
2022/12/15 15:20:02;;;;;;;36.47;22.87;;;2.40;99.90;;;;;;5051719;28;20456;-86
2022/12/15 15:22:48;;;;;;;35.33;21.70;;;2.40;99.90;;;;;;5047922;28;20460;-86
2022/12/15 15:25:35;;;;;;;33.97;22.27;;;2.30;99.90;;;;;;5048576;28;20869;-85
2022/12/15 15:28:11;;;;;;;37.43;22.77;;;2.20;99.90;;;;;;5045669;28;20440;-86
2022/12/15 15:30:43;;;;;;;37.00;25.70;;;2.20;99.90;;;;;;5045157;28;20525;-86
2022/12/15 15:33:12;;;;;;;34.73;22.80;;;2.20;99.90;;;;;;5046306;28;20451;-86
2022/12/15 15:35:51;;;;;;;38.27;24.63;;;2.20;99.90;;;;;;5047712;28;20547;-85
2022/12/15 15:38:23;;;;;;;34.40;24.63;;;2.10;99.90;;;;;;5064140;22;20483;-86
2022/12/15 15:40:56;;;;;;;40.03;23.63;;;2.00;99.90;;;;;;5053454;28;20535;-86
2022/12/15 15:43:24;;;;;;;40.23;24.67;;;1.90;99.90;;;;;;5053784;28;20528;-86
2022/12/15 15:45:58;;;;;;;40.63;23.77;;;1.90;99.90;;;;;;5053201;28;20531;-85
2022/12/15 15:48:28;;;;;;;36.80;23.90;;;1.60;99.90;;;;;;5052557;28;20890;-84
2022/12/15 15:54:24;;;;;;;34.67;22.83;;;1.50;99.90;;;;;;5051978;28;20472;-86
2022/12/15 15:56:57;;;;;;;36.07;23.93;;;1.50;99.90;;;;;;5057495;28;20528;-85
2022/12/15 15:59:25;;;;;;;35.10;23.47;;;1.50;99.90;;;;;;5057241;28;20436;-85
2022/12/15 16:01:57;;;;;;;36.53;22.77;;;1.40;99.90;;;;;;5058074;28;20432;-84
2022/12/15 16:04:27;;;;;;;39.73;24.93;;;1.50;99.90;;;;;;5057757;28;20424;-85
2022/12/15 16:14:33;;;;;;;36.63;23.27;;;1.50;99.90;;;;;;5044605;22;20476;-93
2022/12/15 16:20:09;;;;;;;42.47;25.03;;;1.30;99.90;;;;;;5057404;28;20472;-86
2022/12/15 16:22:47;;;;;;;47.30;30.38;;;1.30;99.90;;;;;;5058814;28;20399;-85
2022/12/15 16:25:34;;;;;;;43.90;27.60;;;1.20;99.90;;;;;;5050797;28;20191;-86
2022/12/15 16:34:36;;;;;;;42.83;25.47;;;0.90;99.90;;;;;;5058272;28;21006;-85
2022/12/15 16:47:50;;;;;;;42.20;26.87;;;0.70;99.90;;;;;;5038171;28;20468;-84
2022/12/15 16:50:36;;;;;;;48.70;27.87;;;0.60;99.90;;;;;;5066991;23;20491;-85
2022/12/15 16:53:39;;;;;;;53.63;27.87;;;0.40;99.90;;;;;;5053743;28;20502;-83
2022/12/15 17:03:04;;;;;;;44.17;28.17;;;0.50;99.90;;;;;;5058793;28;20419;-83
2022/12/15 17:05:35;;;;;;;54.93;30.97;;;0.50;99.90;;;;;;5052697;28;20446;-78
2022/12/15 17:08:08;;;;;;;47.33;31.07;;;0.50;99.90;;;;;;5026407;28;20449;-78
2022/12/15 17:10:36;;;;;;;52.37;31.17;;;0.50;99.90;;;;;;5035824;28;20447;-78
2022/12/15 17:13:14;;;;;;;50.97;31.83;;;0.40;99.90;;;;;;5044776;28;20449;-79
2022/12/15 17:15:43;;;;;;;50.93;30.77;;;0.50;99.90;;;;;;5030109;28;20468;-80
2022/12/15 17:18:13;;;;;;;50.83;31.17;;;0.40;99.90;;;;;;5045699;28;20456;-79
2022/12/15 17:21:27;;;;;;;54.70;30.50;;;0.40;99.90;;;;;;5050156;28;20488;-81
2022/12/15 17:24:08;;;;;;;54.43;31.33;;;0.30;99.90;;;;;;5057845;28;20444;-84
2022/12/15 17:27:16;;;;;;;52.30;30.53;;;0.20;99.90;;;;;;5057891;28;20459;-84
2022/12/15 17:29:49;;;;;;;55.33;31.40;;;0.20;99.90;;;;;;5058220;28;20447;-85
2022/12/15 17:36:02;;;;;;;50.10;30.53;;;0.10;99.90;;;;;;5057058;28;20487;-84
2022/12/15 17:41:54;;;;;;;50.07;29.57;;;-0.30;99.90;;;;;;5057155;28;20424;-85
2022/12/15 17:44:28;;;;;;;45.80;30.60;;;-0.40;99.90;;;;;;5055710;28;20464;-81
2022/12/15 17:46:55;;;;;;;56.50;33.10;;;-0.20;99.90;;;;;;5047085;28;20809;-78
2022/12/15 17:49:22;;;;;;;59.07;33.67;;;-0.20;99.90;;;;;;5032299;28;20457;-77
2022/12/15 17:51:51;;;;;;;54.80;33.23;;;-0.20;99.90;;;;;;5026733;28;20463;-80
2022/12/15 17:54:19;;;;;;;50.83;32.20;;;-0.10;99.90;;;;;;5046327;28;20505;-81
2022/12/15 17:56:48;;;;;;;51.03;34.00;;;-0.20;99.90;;;;;;5039691;28;20447;-83
2022/12/15 17:59:56;;;;;;;55.87;34.07;;;-0.10;99.90;;;;;;5043927;28;20425;-85
2022/12/15 18:02:47;;;;;;;53.10;33.27;;;-0.10;99.90;;;;;;5054875;28;20447;-85
2022/12/15 18:08:53;;;;;;;58.30;33.40;;;-0.10;99.90;;;;;;5056181;28;20444;-84
2022/12/15 18:11:31;;;;;;;74.55;48.22;;;0.00;99.90;;;;;;5043102;28;20433;-84
2022/12/15 18:14:17;;;;;;;64.87;37.57;;;0.10;99.90;;;;;;5047252;28;20214;-83
2022/12/15 18:16:55;;;;;;;54.73;34.30;;;0.10;99.90;;;;;;5031247;28;20517;-81
2022/12/15 18:19:26;;;;;;;55.80;32.17;;;0.10;99.90;;;;;;5030080;28;20474;-82
2022/12/15 18:21:59;;;;;;;58.03;33.60;;;0.00;99.90;;;;;;5032679;28;20477;-81
2022/12/15 18:24:28;;;;;;;56.90;33.93;;;0.10;99.90;;;;;;5039429;28;20432;-81
2022/12/15 18:26:55;;;;;;;53.83;33.60;;;0.10;99.90;;;;;;5029592;28;20449;-81
2022/12/15 18:29:31;;;;;;;49.87;32.63;;;0.20;99.90;;;;;;5023577;28;20459;-81
2022/12/15 18:31:58;;;;;;;56.73;32.77;;;0.20;99.90;;;;;;5025450;28;20552;-85
2022/12/15 18:34:25;;;;;;;50.77;31.07;;;0.10;99.90;;;;;;5042403;28;20893;-82
2022/12/15 18:36:53;;;;;;;56.23;38.27;;;0.00;99.90;;;;;;5047548;28;20887;-82
2022/12/15 18:39:25;;;;;;;57.57;35.53;;;0.00;99.90;;;;;;5044576;28;20459;-82
2022/12/15 18:41:57;;;;;;;50.83;33.00;;;0.10;99.90;;;;;;5049123;28;20448;-81
2022/12/15 18:44:32;;;;;;;50.53;34.40;;;0.10;99.90;;;;;;5050233;28;20449;-84
2022/12/15 18:49:47;;;;;;;50.50;31.03;;;-0.10;99.90;;;;;;5027509;28;20472;-85
2022/12/15 18:52:20;;;;;;;54.03;33.00;;;-0.10;99.90;;;;;;5021943;28;20453;-85
2022/12/15 18:54:57;;;;;;;51.97;31.73;;;-0.10;99.90;;;;;;5024756;28;20883;-83
2022/12/15 18:57:39;;;;;;;55.10;33.43;;;-0.10;99.90;;;;;;5023550;28;20457;-82
2022/12/15 19:00:26;;;;;;;50.77;31.20;;;-0.10;99.90;;;;;;5017215;28;20517;-81
2022/12/15 19:02:58;;;;;;;56.30;33.53;;;-0.20;99.90;;;;;;5020713;28;20442;-82
2022/12/15 19:05:31;;;;;;;66.03;48.15;;;-0.20;99.90;;;;;;5011858;28;20501;-85
2022/12/15 19:08:03;;;;;;;60.97;38.20;;;0.00;99.90;;;;;;5022654;28;20208;-81
2022/12/15 19:10:34;;;;;;;60.43;37.10;;;-0.10;99.90;;;;;;5016717;28;20446;-85
2022/12/15 19:13:18;;;;;;;59.27;35.13;;;-0.30;99.90;;;;;;5026145;28;20442;-84
2022/12/15 19:15:45;;;;;;;60.17;35.17;;;-0.40;99.90;;;;;;5028073;28;20488;-85
2022/12/15 19:24:11;;;;;;;60.23;35.63;;;-0.40;99.90;;;;;;5028150;28;20443;-82
2022/12/15 19:26:48;;;;;;;59.30;35.10;;;-0.60;99.90;;;;;;5036434;28;20449;-84
2022/12/15 19:29:20;;;;;;;67.13;38.37;;;-0.70;99.90;;;;;;5023232;28;20488;-84
2022/12/15 19:31:48;;;;;;;74.22;49.00;;;-0.70;99.90;;;;;;5025357;28;20948;-84
2022/12/15 19:34:15;;;;;;;59.43;39.03;;;-0.60;99.90;;;;;;5018243;28;20236;-84
2022/12/15 19:36:45;;;;;;;62.70;38.00;;;-0.60;99.90;;;;;;5027476;28;20501;-83
2022/12/15 19:39:21;;;;;;;63.43;36.97;;;-0.60;99.90;;;;;;5034315;28;20457;-83
2022/12/15 19:42:01;;;;;;;61.77;36.40;;;-1.20;99.90;;;;;;5039823;28;20460;-83
2022/12/15 19:44:39;;;;;;;57.70;35.47;;;-1.50;99.90;;;;;;5022533;28;20450;-84
2022/12/15 19:47:14;;;;;;;66.23;35.30;;;-1.30;99.90;;;;;;5020337;28;20441;-84
2022/12/15 19:49:43;;;;;;;58.53;35.13;;;-1.30;99.90;;;;;;5020017;28;20500;-83
2022/12/15 19:52:24;;;;;;;58.70;35.97;;;-1.10;99.90;;;;;;5018800;28;20454;-83
2022/12/15 19:55:03;;;;;;;58.43;34.83;;;-1.10;99.90;;;;;;5019152;28;20454;-84
2022/12/15 19:57:31;;;;;;;58.67;35.27;;;-1.10;99.90;;;;;;5019418;28;20449;-83
2022/12/15 20:00:15;;;;;;;60.40;36.13;;;-1.10;99.90;;;;;;5025195;28;20433;-83
2022/12/15 20:02:46;;;;;;;67.20;37.77;;;-1.10;99.90;;;;;;5038376;28;20420;-83
2022/12/15 20:05:21;;;;;;;68.00;39.83;;;-1.20;99.90;;;;;;5037746;28;20434;-82
2022/12/15 20:07:51;;;;;;;71.67;42.23;;;-1.10;99.90;;;;;;5038896;28;20472;-83
2022/12/15 20:10:23;;;;;;;69.50;41.47;;;-1.20;99.90;;;;;;5038397;28;20979;-83
2022/12/15 20:13:06;;;;;;;87.43;48.20;;;-1.30;99.90;;;;;;5036149;28;20448;-83
2022/12/15 20:16:06;;;;;;;89.27;49.63;;;-1.30;99.90;;;;;;5035622;28;20551;-82
2022/12/15 20:18:37;;;;;;;88.80;46.17;;;-1.30;99.90;;;;;;5034033;28;20449;-83
2022/12/15 20:21:04;;;;;;;74.77;45.47;;;-1.30;99.90;;;;;;5020522;28;20454;-81
2022/12/15 20:23:33;;;;;;;79.20;45.40;;;-1.40;99.90;;;;;;5012517;28;20879;-82
2022/12/15 20:26:00;;;;;;;75.80;44.50;;;-1.30;99.90;;;;;;5014911;28;20438;-82
2022/12/15 20:28:35;;;;;;;79.93;42.87;;;-1.60;99.90;;;;;;5018374;28;20453;-82
2022/12/15 20:31:11;;;;;;;81.50;44.23;;;-1.80;99.90;;;;;;5016804;28;20418;-83
2022/12/15 20:33:49;;;;;;;80.27;47.13;;;-1.70;99.90;;;;;;5017604;28;20510;-83
2022/12/15 20:36:38;;;;;;;90.13;48.93;;;-1.60;99.90;;;;;;5030256;28;20499;-82
2022/12/15 20:41:59;;;;;;;83.63;48.07;;;-1.40;99.90;;;;;;5014508;28;20442;-82
2022/12/15 20:44:37;;;;;;;76.70;47.47;;;-1.30;99.90;;;;;;5013514;28;20513;-82
2022/12/15 20:47:19;;;;;;;75.13;45.53;;;-1.50;99.90;;;;;;5023607;28;20459;-82
2022/12/15 20:49:46;;;;;;;81.90;46.50;;;-1.70;99.90;;;;;;5024492;28;20915;-82
2022/12/15 20:52:19;;;;;;;76.47;45.53;;;-1.80;99.90;;;;;;5022930;28;20449;-82
2022/12/15 20:54:57;;;;;;;85.15;50.03;;;-1.90;99.90;;;;;;5028931;28;20485;-82
2022/12/15 20:57:35;;;;;;;79.57;45.83;;;-1.90;99.90;;;;;;5033874;28;20231;-82
2022/12/15 21:00:21;;;;;;;76.93;46.73;;;-1.80;99.90;;;;;;5016999;28;20442;-82
2022/12/15 21:03:13;;;;;;;77.40;47.27;;;-1.70;99.90;;;;;;5027567;28;20438;-83
2022/12/15 21:06:03;;;;;;;76.90;45.43;;;-1.60;99.90;;;;;;5031409;28;20453;-81
2022/12/15 21:08:36;;;;;;;75.57;46.43;;;-1.50;99.90;;;;;;5025020;28;20441;-83
2022/12/15 21:11:19;;;;;;;79.30;47.80;;;-1.60;99.90;;;;;;5034827;28;20449;-82
2022/12/15 21:13:49;;;;;;;89.80;50.07;;;-1.60;99.90;;;;;;5035136;28;20456;-82
2022/12/15 21:16:18;;;;;;;88.30;49.63;;;-1.70;99.90;;;;;;5029582;28;20496;-82
2022/12/15 21:18:55;;;;;;;84.90;51.27;;;-1.80;99.90;;;;;;5028662;28;20450;-82
2022/12/15 21:21:30;;;;;;;83.50;50.13;;;-1.80;99.90;;;;;;5027316;28;20485;-81
2022/12/15 21:24:01;;;;;;;85.27;49.83;;;-1.80;99.90;;;;;;5017691;28;20442;-82
2022/12/15 21:26:32;;;;;;;87.20;48.40;;;-1.80;99.90;;;;;;5024383;28;20470;-82
2022/12/15 21:29:01;;;;;;;81.77;49.00;;;-1.90;99.90;;;;;;5015938;28;20439;-80
2022/12/15 21:31:34;;;;;;;87.07;48.10;;;-2.00;99.90;;;;;;5024795;28;20494;-82
2022/12/15 21:34:12;;;;;;;73.43;44.80;;;-1.90;99.90;;;;;;5014550;28;20466;-81
2022/12/15 21:36:56;;;;;;;80.43;45.73;;;-1.60;99.90;;;;;;5028006;28;20480;-84
2022/12/15 21:39:32;;;;;;;86.70;47.00;;;-1.50;99.90;;;;;;5035057;28;20505;-82